createdAt,value
2018-05-21T00:00:35.154Z,3.40
2018-05-21T00:03:01.299Z,3.47
2018-05-21T00:05:27.183Z,3.33
2018-05-21T00:07:53.044Z,3.57
2018-05-21T00:10:19.064Z,3.57
2018-05-21T00:12:44.931Z,2.93
2018-05-21T00:15:10.867Z,3.10
2018-05-21T00:17:36.836Z,3.50
2018-05-21T00:20:02.814Z,3.60
2018-05-21T00:22:28.775Z,3.40
2018-05-21T00:24:54.707Z,3.27
2018-05-21T00:27:20.559Z,3.50
2018-05-21T00:29:46.412Z,3.30
2018-05-21T00:32:12.340Z,3.27
2018-05-21T00:34:38.327Z,3.60
2018-05-21T00:37:04.257Z,3.50
2018-05-21T00:39:31.415Z,3.77
2018-05-21T00:41:57.290Z,3.60
2018-05-21T00:44:23.161Z,3.50
2018-05-21T00:46:49.160Z,3.63
2018-05-21T00:49:15.037Z,3.00
2018-05-21T00:51:40.922Z,3.50
2018-05-21T00:54:06.859Z,3.13
2018-05-21T00:56:32.751Z,3.53
2018-05-21T00:58:58.710Z,3.60
2018-05-21T01:01:24.631Z,3.30
2018-05-21T01:03:50.505Z,3.67
2018-05-21T01:06:16.388Z,3.43
2018-05-21T01:08:42.308Z,3.40
2018-05-21T01:11:08.307Z,3.43
2018-05-21T01:13:34.228Z,3.80
2018-05-21T01:16:00.158Z,3.57
2018-05-21T01:18:26.064Z,3.53
2018-05-21T01:20:51.946Z,3.40
2018-05-21T01:23:17.935Z,3.60
2018-05-21T01:25:43.807Z,4.00
2018-05-21T01:28:09.671Z,4.17
2018-05-21T01:30:35.608Z,3.53
2018-05-21T01:33:01.529Z,3.60
2018-05-21T01:35:27.508Z,4.10
2018-05-21T01:37:53.427Z,3.90
2018-05-21T01:40:19.309Z,4.03
2018-05-21T01:42:45.183Z,4.00
2018-05-21T01:45:11.100Z,3.93
2018-05-21T01:47:37.086Z,4.30
2018-05-21T01:50:03.012Z,3.90
2018-05-21T01:52:29.332Z,3.83
2018-05-21T01:54:55.200Z,4.87
2018-05-21T01:57:21.071Z,3.93
2018-05-21T01:59:47.072Z,4.33
2018-05-21T02:02:12.935Z,4.20
2018-05-21T02:04:39.939Z,3.87
2018-05-21T02:07:06.042Z,4.27
2018-05-21T02:09:31.936Z,4.27
2018-05-21T02:11:57.908Z,4.73
2018-05-21T02:14:23.874Z,4.27
2018-05-21T02:16:49.809Z,4.70
2018-05-21T02:19:15.683Z,4.30
2018-05-21T02:21:41.597Z,4.50
2018-05-21T02:24:07.579Z,4.10
2018-05-21T02:26:33.502Z,4.37
2018-05-21T02:28:59.455Z,4.57
2018-05-21T02:31:25.331Z,4.50
2018-05-21T02:33:51.197Z,4.17
2018-05-21T02:36:17.213Z,4.13
2018-05-21T02:38:43.092Z,4.03
2018-05-21T02:41:09.020Z,5.00
2018-05-21T02:43:34.981Z,4.23
2018-05-21T02:46:01.149Z,4.30
2018-05-21T02:48:27.090Z,4.37
2018-05-21T02:50:53.015Z,4.53
2018-05-21T02:53:18.939Z,5.00
2018-05-21T02:55:44.818Z,4.63
2018-05-21T02:58:10.727Z,4.43
2018-05-21T03:00:36.795Z,4.27
2018-05-21T03:03:02.713Z,4.50
2018-05-21T03:05:28.695Z,4.30
2018-05-21T03:07:54.561Z,4.17
2018-05-21T03:10:20.488Z,4.33
2018-05-21T03:12:46.508Z,4.40
2018-05-21T03:15:12.387Z,4.53
2018-05-21T03:17:38.314Z,4.27
2018-05-21T03:20:04.263Z,4.47
2018-05-21T03:22:30.131Z,4.37
2018-05-21T03:24:56.108Z,4.17
2018-05-21T03:27:22.029Z,4.03
2018-05-21T03:29:48.007Z,3.97
2018-05-21T03:32:13.863Z,3.97
2018-05-21T03:34:40.165Z,4.40
2018-05-21T03:37:06.155Z,4.10
2018-05-21T03:39:32.072Z,4.10
2018-05-21T03:41:58.051Z,4.33
2018-05-21T03:44:23.920Z,3.53
2018-05-21T03:46:49.792Z,3.97
2018-05-21T03:49:15.883Z,4.07
2018-05-21T03:51:41.766Z,3.80
2018-05-21T03:54:07.715Z,4.27
2018-05-21T03:56:34.077Z,4.17
2018-05-21T03:59:12.323Z,4.67
2018-05-21T04:01:50.738Z,4.83
2018-05-21T04:04:16.681Z,4.30
2018-05-21T04:06:42.660Z,3.60
2018-05-21T04:09:08.573Z,4.33
2018-05-21T04:11:34.473Z,3.93
2018-05-21T04:14:00.403Z,4.00
2018-05-21T04:16:26.368Z,3.67
2018-05-21T04:18:52.351Z,4.00
2018-05-21T04:21:18.135Z,3.73
2018-05-21T04:23:44.048Z,4.20
2018-05-21T04:26:10.007Z,4.03
2018-05-21T04:28:35.921Z,3.87
2018-05-21T04:31:01.883Z,3.40
2018-05-21T04:33:27.755Z,3.83
2018-05-21T04:35:53.618Z,3.80
2018-05-21T04:38:19.511Z,3.17
2018-05-21T04:40:45.417Z,3.57
2018-05-21T04:43:11.280Z,3.40
2018-05-21T04:45:37.232Z,3.60
2018-05-21T04:48:03.155Z,3.50
2018-05-21T04:50:29.023Z,3.77
2018-05-21T04:52:54.951Z,3.70
2018-05-21T04:55:20.852Z,3.57
2018-05-21T04:57:46.711Z,4.10
2018-05-21T05:00:12.683Z,3.70
2018-05-21T05:02:38.579Z,3.63
2018-05-21T05:05:04.615Z,3.67
2018-05-21T05:07:30.543Z,3.90
2018-05-21T05:09:56.468Z,3.70
2018-05-21T05:12:22.517Z,3.53
2018-05-21T05:14:48.447Z,3.53
2018-05-21T05:17:14.420Z,3.80
2018-05-21T05:19:40.296Z,3.73
2018-05-21T05:22:06.684Z,3.60
2018-05-21T05:24:32.619Z,3.47
2018-05-21T05:26:58.549Z,3.80
2018-05-21T05:29:24.536Z,3.60
2018-05-21T05:31:50.397Z,3.50
2018-05-21T05:34:16.271Z,3.63
2018-05-21T05:36:42.197Z,3.40
2018-05-21T05:39:08.099Z,3.97
2018-05-21T05:41:34.019Z,3.70
2018-05-21T05:43:59.931Z,3.77
2018-05-21T05:46:25.807Z,3.40
2018-05-21T05:48:51.782Z,3.83
2018-05-21T05:51:17.699Z,3.30
2018-05-21T05:53:43.573Z,3.60
2018-05-21T05:56:09.459Z,3.93
2018-05-21T05:58:35.454Z,3.50
2018-05-21T06:01:01.405Z,3.60
2018-05-21T06:03:27.282Z,3.23
2018-05-21T06:05:53.206Z,3.70
2018-05-21T06:08:19.067Z,3.77
2018-05-21T06:10:45.195Z,3.73
2018-05-21T06:13:11.108Z,3.80
2018-05-21T06:15:37.000Z,4.00
2018-05-21T06:18:03.021Z,3.93
2018-05-21T06:20:28.947Z,3.63
2018-05-21T06:22:54.799Z,3.80
2018-05-21T06:25:20.679Z,3.57
2018-05-21T06:27:46.600Z,3.83
2018-05-21T06:30:12.595Z,3.50
2018-05-21T06:32:38.474Z,3.20
2018-05-21T06:35:04.440Z,3.20
2018-05-21T06:37:30.409Z,3.60
2018-05-21T06:39:56.280Z,3.80
2018-05-21T06:42:22.251Z,3.30
2018-05-21T06:44:48.128Z,3.67
2018-05-21T06:47:14.063Z,3.30
2018-05-21T06:49:40.099Z,3.40
2018-05-21T06:52:05.972Z,3.57
2018-05-21T06:54:31.939Z,3.90
2018-05-21T06:56:57.872Z,3.07
2018-05-21T06:59:23.758Z,3.37
2018-05-21T07:01:49.641Z,3.37
2018-05-21T07:04:15.572Z,2.87
2018-05-21T07:06:41.494Z,3.10
2018-05-21T07:09:07.400Z,3.00
2018-05-21T07:11:33.373Z,2.93
2018-05-21T07:13:59.243Z,2.83
2018-05-21T07:16:25.129Z,2.90
2018-05-21T07:18:51.031Z,2.90
2018-05-21T07:21:16.903Z,3.13
2018-05-21T07:23:42.763Z,2.90
2018-05-21T07:26:08.725Z,2.83
2018-05-21T07:28:34.607Z,3.13
2018-05-21T07:31:00.467Z,2.63
2018-05-21T07:33:26.392Z,2.80
2018-05-21T07:35:52.258Z,2.80
2018-05-21T07:38:18.207Z,2.63
2018-05-21T07:40:44.123Z,2.50
2018-05-21T07:43:09.995Z,2.73
2018-05-21T07:45:35.883Z,2.73
2018-05-21T07:48:01.805Z,2.30
2018-05-21T07:50:27.700Z,2.70
2018-05-21T07:52:53.576Z,2.40
2018-05-21T07:55:19.530Z,2.47
2018-05-21T07:57:45.460Z,2.50
2018-05-21T08:00:11.382Z,2.70
2018-05-21T08:02:37.306Z,2.43
2018-05-21T08:05:03.331Z,2.73
2018-05-21T08:07:29.167Z,2.40
2018-05-21T08:09:55.078Z,2.23
2018-05-21T08:12:20.980Z,2.60
2018-05-21T08:14:47.015Z,2.43
2018-05-21T08:17:12.856Z,2.60
2018-05-21T08:19:38.738Z,2.40
2018-05-21T08:22:04.622Z,2.33
2018-05-21T08:24:30.556Z,2.57
2018-05-21T08:26:56.472Z,2.43
2018-05-21T08:29:22.353Z,2.40
2018-05-21T08:31:48.379Z,2.40
2018-05-21T08:34:14.236Z,2.70
2018-05-21T08:36:40.151Z,2.43
2018-05-21T08:39:06.095Z,2.80
2018-05-21T08:41:32.009Z,2.60
2018-05-21T08:43:57.911Z,2.47
2018-05-21T08:46:23.884Z,2.90
2018-05-21T08:48:49.941Z,2.57
2018-05-21T08:51:15.723Z,2.43
2018-05-21T08:53:41.662Z,2.87
2018-05-21T08:56:07.541Z,2.80
2018-05-21T08:58:33.430Z,2.80
2018-05-21T09:00:59.395Z,2.77
2018-05-21T09:03:25.302Z,2.80
2018-05-21T09:05:51.179Z,2.37
2018-05-21T09:08:17.203Z,2.50
2018-05-21T09:10:43.069Z,2.70
2018-05-21T09:13:08.965Z,2.70
2018-05-21T09:15:34.909Z,2.60
2018-05-21T09:18:00.796Z,2.33
2018-05-21T09:20:26.781Z,2.60
2018-05-21T09:22:52.694Z,2.67
2018-05-21T09:25:18.618Z,3.20
2018-05-21T09:27:44.511Z,2.77
2018-05-21T09:30:16.921Z,3.00
2018-05-21T09:32:42.862Z,3.13
2018-05-21T09:35:08.763Z,3.43
2018-05-21T09:37:34.819Z,2.87
2018-05-21T09:40:00.716Z,2.73
2018-05-21T09:42:26.643Z,2.80
2018-05-21T09:44:52.560Z,2.60
2018-05-21T09:47:18.511Z,2.97
2018-05-21T09:49:44.387Z,2.60
2018-05-21T09:52:10.364Z,3.20
2018-05-21T09:54:36.221Z,2.50
2018-05-21T09:57:02.124Z,2.77
2018-05-21T09:59:28.059Z,2.83
2018-05-21T10:01:53.930Z,2.60
2018-05-21T10:04:21.871Z,3.07
2018-05-21T10:06:47.810Z,3.37
2018-05-21T10:09:13.716Z,2.60
2018-05-21T10:11:39.690Z,2.80
2018-05-21T10:14:05.614Z,3.00
2018-05-21T10:16:31.516Z,2.90
2018-05-21T10:18:57.396Z,2.70
2018-05-21T10:21:23.331Z,2.77
2018-05-21T10:23:49.305Z,3.17
2018-05-21T10:26:15.178Z,2.70
2018-05-21T10:28:41.113Z,2.70
2018-05-21T10:31:08.039Z,2.93
2018-05-21T10:33:33.939Z,3.10
2018-05-21T10:35:59.913Z,2.90
2018-05-21T10:38:25.796Z,3.03
2018-05-21T10:40:51.721Z,2.80
2018-05-21T10:43:17.667Z,2.73
2018-05-21T10:45:43.565Z,3.00
2018-05-21T10:48:09.361Z,2.60
2018-05-21T10:50:35.297Z,2.57
2018-05-21T10:53:01.172Z,2.90
2018-05-21T10:55:27.077Z,3.00
2018-05-21T10:57:53.037Z,2.60
2018-05-21T11:00:19.967Z,2.80
2018-05-21T11:02:45.870Z,2.77
2018-05-21T11:05:11.807Z,2.60
2018-05-21T11:07:37.683Z,3.30
2018-05-21T11:10:03.588Z,2.50
2018-05-21T11:12:29.618Z,2.70
2018-05-21T11:14:55.499Z,2.90
2018-05-21T11:17:21.401Z,2.47
2018-05-21T11:19:47.383Z,2.60
2018-05-21T11:22:13.255Z,2.37
2018-05-21T11:24:39.187Z,2.33
2018-05-21T11:27:05.084Z,2.53
2018-05-21T11:29:31.421Z,2.50
2018-05-21T11:31:57.296Z,2.23
2018-05-21T11:34:23.231Z,2.37
2018-05-21T11:36:49.168Z,2.20
2018-05-21T11:39:15.049Z,2.30
2018-05-21T11:41:40.973Z,2.30
2018-05-21T11:44:06.845Z,2.60
2018-05-21T11:46:32.703Z,2.30
2018-05-21T11:48:58.613Z,2.33
2018-05-21T11:51:24.482Z,2.10
2018-05-21T11:53:50.424Z,2.40
2018-05-21T11:56:16.713Z,2.40
2018-05-21T11:58:42.601Z,2.37
2018-05-21T12:01:08.504Z,2.50
2018-05-21T12:03:34.469Z,2.30
2018-05-21T12:06:00.356Z,1.97
2018-05-21T12:08:26.235Z,2.37
2018-05-21T12:10:52.185Z,2.57
2018-05-21T12:13:18.135Z,2.20
2018-05-21T12:15:44.005Z,2.30
2018-05-21T12:18:09.964Z,2.30
2018-05-21T12:20:35.872Z,2.13
2018-05-21T12:23:01.764Z,2.30
2018-05-21T12:25:27.672Z,2.50
2018-05-21T12:27:53.605Z,2.00
2018-05-21T12:30:19.520Z,2.30
2018-05-21T12:32:45.737Z,2.33
2018-05-21T12:35:11.683Z,2.50
2018-05-21T12:37:37.552Z,2.10
2018-05-21T12:40:06.640Z,2.50
2018-05-21T12:42:32.512Z,2.37
2018-05-21T12:44:58.383Z,2.43
2018-05-21T12:47:24.327Z,2.23
2018-05-21T12:49:50.235Z,2.70
2018-05-21T12:52:16.106Z,2.30
2018-05-21T12:54:42.051Z,2.20
2018-05-21T12:57:07.928Z,2.63
2018-05-21T12:59:33.923Z,2.40
2018-05-21T13:01:59.855Z,2.17
2018-05-21T13:04:25.740Z,1.90
2018-05-21T13:06:51.707Z,2.00
2018-05-21T13:09:18.775Z,2.30
2018-05-21T13:11:44.708Z,2.20
2018-05-21T13:14:10.672Z,2.10
2018-05-21T13:16:36.581Z,2.23
2018-05-21T13:19:02.491Z,2.60
2018-05-21T13:21:28.367Z,1.90
2018-05-21T13:23:54.371Z,2.10
2018-05-21T13:26:20.354Z,2.30
2018-05-21T13:28:46.275Z,2.00
2018-05-21T13:31:12.188Z,2.17
2018-05-21T13:33:38.092Z,2.27
2018-05-21T13:36:04.039Z,2.33
2018-05-21T13:38:30.019Z,2.40
2018-05-21T13:40:55.937Z,2.10
2018-05-21T13:43:21.829Z,2.33
2018-05-21T13:45:47.839Z,2.30
2018-05-21T13:48:13.877Z,2.43
2018-05-21T13:50:39.847Z,2.27
2018-05-21T13:53:05.796Z,2.50
2018-05-21T13:55:31.673Z,2.10
2018-05-21T13:57:57.580Z,2.20
2018-05-21T14:00:23.575Z,2.40
2018-05-21T14:02:49.578Z,2.20
2018-05-21T14:05:15.451Z,2.57
2018-05-21T14:07:41.403Z,2.30
2018-05-21T14:10:07.278Z,2.10
2018-05-21T14:12:33.252Z,2.33
2018-05-21T14:14:59.214Z,2.17
2018-05-21T14:17:25.166Z,1.83
2018-05-21T14:19:51.068Z,2.70
2018-05-21T14:22:17.053Z,2.40
2018-05-21T14:24:44.164Z,2.30
2018-05-21T14:27:10.248Z,2.00
2018-05-21T14:29:36.668Z,2.10
2018-05-21T14:32:02.569Z,2.37
2018-05-21T14:34:28.784Z,2.47
2018-05-21T14:36:54.884Z,2.20
2018-05-21T14:39:20.780Z,2.40
2018-05-21T14:41:46.635Z,2.73
2018-05-21T14:44:12.569Z,2.43
2018-05-21T14:46:38.651Z,2.23
2018-05-21T14:49:04.609Z,2.30
2018-05-21T14:51:30.555Z,2.50
2018-05-21T14:53:56.416Z,2.47
2018-05-21T14:56:22.284Z,2.30
2018-05-21T14:58:48.387Z,2.50
2018-05-21T15:01:16.324Z,2.37
2018-05-21T15:03:42.297Z,2.20
2018-05-21T15:06:08.288Z,2.30
2018-05-21T15:08:34.278Z,2.50
2018-05-21T15:11:00.140Z,2.30
2018-05-21T15:13:26.076Z,2.40
2018-05-21T15:15:52.012Z,2.70
2018-05-21T15:18:17.966Z,2.50
2018-05-21T15:20:43.900Z,2.47
2018-05-21T15:23:09.842Z,2.30
2018-05-21T15:25:35.761Z,2.50
2018-05-21T15:28:01.679Z,2.07
2018-05-21T15:30:27.588Z,2.10
2018-05-21T15:32:53.498Z,2.07
2018-05-21T15:35:19.460Z,2.20
2018-05-21T15:37:45.342Z,2.10
2018-05-21T15:40:11.219Z,2.30
2018-05-21T15:42:37.162Z,2.47
2018-05-21T15:45:03.068Z,2.30
2018-05-21T15:47:29.380Z,2.57
2018-05-21T15:49:55.295Z,2.20
2018-05-21T15:52:21.207Z,2.30
2018-05-21T15:54:47.128Z,2.27
2018-05-21T15:57:13.055Z,2.33
2018-05-21T15:59:38.939Z,2.33
2018-05-21T16:02:04.839Z,2.20
2018-05-21T16:04:30.783Z,2.27
2018-05-21T16:06:56.781Z,2.40
2018-05-21T16:09:22.678Z,2.20
2018-05-21T16:11:49.713Z,2.30
2018-05-21T16:14:15.664Z,2.40
2018-05-21T16:16:41.619Z,2.90
2018-05-21T16:19:07.618Z,2.40
2018-05-21T16:21:33.569Z,2.23
2018-05-21T16:24:00.551Z,2.13
2018-05-21T16:26:26.486Z,2.27
2018-05-21T16:28:52.477Z,2.10
2018-05-21T16:31:19.557Z,2.10
2018-05-21T16:33:45.508Z,2.50
2018-05-21T16:36:11.390Z,2.50
2018-05-21T16:38:37.332Z,1.83
2018-05-21T16:41:03.343Z,2.40
2018-05-21T16:43:29.287Z,2.30
2018-05-21T16:45:55.182Z,2.70
2018-05-21T16:48:21.114Z,2.30
2018-05-21T16:50:46.984Z,2.60
2018-05-21T16:53:12.871Z,2.60
2018-05-21T16:55:38.796Z,2.60
2018-05-21T16:58:04.723Z,2.27
2018-05-21T17:00:30.740Z,2.43
2018-05-21T17:02:56.615Z,2.60
2018-05-21T17:05:22.500Z,2.30
2018-05-21T17:07:48.412Z,2.43
2018-05-21T17:10:14.385Z,2.40
2018-05-21T17:12:40.264Z,2.37
2018-05-21T17:15:06.133Z,2.40
2018-05-21T17:17:32.081Z,2.80
2018-05-21T17:19:58.019Z,2.40
2018-05-21T17:22:23.899Z,2.17
2018-05-21T17:24:50.060Z,2.30
2018-05-21T17:27:15.946Z,2.10
2018-05-21T17:29:41.915Z,2.80
2018-05-21T17:32:07.859Z,2.50
2018-05-21T17:34:33.723Z,2.60
2018-05-21T17:36:59.630Z,2.20
2018-05-21T17:39:25.624Z,2.13
2018-05-21T17:41:51.552Z,2.40
2018-05-21T17:44:18.460Z,2.37
2018-05-21T17:46:44.392Z,2.70
2018-05-21T17:49:10.271Z,2.70
2018-05-21T17:51:36.201Z,2.60
2018-05-21T17:54:02.094Z,2.07
2018-05-21T17:56:27.990Z,2.30
2018-05-21T17:58:53.871Z,2.57
2018-05-21T18:01:19.809Z,2.40
2018-05-21T18:03:45.796Z,2.40
2018-05-21T18:06:11.696Z,2.80
2018-05-21T18:08:38.736Z,2.10
2018-05-21T18:11:04.604Z,2.63
2018-05-21T18:13:30.496Z,2.40
2018-05-21T18:15:56.472Z,2.27
2018-05-21T18:18:22.351Z,2.27
2018-05-21T18:20:48.346Z,2.30
2018-05-21T18:23:14.352Z,2.60
2018-05-21T18:25:40.259Z,2.70
2018-05-21T18:28:06.151Z,2.60
2018-05-21T18:30:32.114Z,2.93
2018-05-21T18:32:58.079Z,2.60
2018-05-21T18:35:23.952Z,2.63
2018-05-21T18:37:49.868Z,2.70
2018-05-21T18:40:15.784Z,2.50
2018-05-21T18:42:41.789Z,2.50
2018-05-21T18:45:07.793Z,2.70
2018-05-21T18:47:33.667Z,2.40
2018-05-21T18:49:59.560Z,2.40
2018-05-21T18:52:25.480Z,2.70
2018-05-21T18:54:51.352Z,2.80
2018-05-21T18:57:17.267Z,2.90
2018-05-21T18:59:43.228Z,2.57
2018-05-21T19:02:09.130Z,2.90
2018-05-21T19:04:35.012Z,2.83
2018-05-21T19:07:00.943Z,2.80
2018-05-21T19:09:26.897Z,2.50
2018-05-21T19:11:52.849Z,2.70
2018-05-21T19:14:19.191Z,2.60
2018-05-21T19:16:45.096Z,2.60
2018-05-21T19:19:11.033Z,2.70
2018-05-21T19:21:37.033Z,2.77
2018-05-21T19:24:03.067Z,2.70
2018-05-21T19:26:29.021Z,2.63
2018-05-21T19:28:54.987Z,2.80
2018-05-21T19:31:20.883Z,2.63
2018-05-21T19:33:46.874Z,2.90
2018-05-21T19:36:12.840Z,2.80
2018-05-21T19:38:38.710Z,2.73
2018-05-21T19:41:04.600Z,2.70
2018-05-21T19:43:31.295Z,3.37
2018-05-21T19:45:58.520Z,3.00
2018-05-21T19:48:24.391Z,3.13
2018-05-21T19:50:50.434Z,2.80
2018-05-21T19:53:16.412Z,3.00
2018-05-21T19:55:42.336Z,2.90
2018-05-21T19:58:08.253Z,2.97
2018-05-21T20:00:34.123Z,3.10
2018-05-21T20:03:00.043Z,3.30
2018-05-21T20:05:25.984Z,3.30
2018-05-21T20:07:52.057Z,2.87
2018-05-21T20:10:18.049Z,2.73
2018-05-21T20:12:44.382Z,2.50
2018-05-21T20:15:10.456Z,3.20
2018-05-21T20:17:36.341Z,2.70
2018-05-21T20:20:02.294Z,2.97
2018-05-21T20:22:28.268Z,2.67
2018-05-21T20:24:54.155Z,2.73
2018-05-21T20:27:20.399Z,2.67
2018-05-21T20:29:46.446Z,3.10
2018-05-21T20:32:12.345Z,2.90
2018-05-21T20:34:38.254Z,3.00
2018-05-21T20:37:04.182Z,3.13
2018-05-21T20:39:30.325Z,3.37
2018-05-21T20:41:56.247Z,3.53
2018-05-21T20:44:22.172Z,3.50
2018-05-21T20:46:48.082Z,2.97
2018-05-21T20:49:14.083Z,2.93
2018-05-21T20:51:40.044Z,3.10
2018-05-21T20:54:05.923Z,3.23
2018-05-21T20:56:31.852Z,3.10
2018-05-21T20:58:57.731Z,3.33
2018-05-21T21:01:23.813Z,2.60
2018-05-21T21:03:49.683Z,2.77
2018-05-21T21:06:15.656Z,2.77
2018-05-21T21:08:41.541Z,3.10
2018-05-21T21:11:07.463Z,2.93
2018-05-21T21:13:33.329Z,3.07
2018-05-21T21:15:59.215Z,2.70
2018-05-21T21:18:25.115Z,3.07
2018-05-21T21:20:50.996Z,2.93
2018-05-21T21:23:16.948Z,3.20
2018-05-21T21:25:42.882Z,2.77
2018-05-21T21:28:08.747Z,3.07
2018-05-21T21:30:34.660Z,2.90
2018-05-21T21:33:00.620Z,3.03
2018-05-21T21:35:26.507Z,2.87
2018-05-21T21:37:52.375Z,3.00
2018-05-21T21:40:18.295Z,2.80
2018-05-21T21:42:44.163Z,3.07
2018-05-21T21:45:10.041Z,3.37
2018-05-21T21:47:35.963Z,2.80
2018-05-21T21:50:01.873Z,2.83
2018-05-21T21:52:27.822Z,3.00
2018-05-21T21:54:53.744Z,2.70
2018-05-21T21:57:19.607Z,3.10
2018-05-21T21:59:45.472Z,3.03
2018-05-21T22:02:11.478Z,2.90
2018-05-21T22:04:37.289Z,3.10
2018-05-21T22:07:03.180Z,3.23
2018-05-21T22:09:29.219Z,2.80
2018-05-21T22:11:55.118Z,2.97
2018-05-21T22:14:21.014Z,3.33
2018-05-21T22:16:46.931Z,2.90
2018-05-21T22:19:12.796Z,3.03
2018-05-21T22:21:38.658Z,3.00
2018-05-21T22:24:04.689Z,3.70
2018-05-21T22:26:30.580Z,4.07
2018-05-21T22:28:56.464Z,3.90
2018-05-21T22:31:22.397Z,3.60
2018-05-21T22:33:48.263Z,3.70
2018-05-21T22:36:14.145Z,3.40
2018-05-21T22:38:40.140Z,3.30
2018-05-21T22:41:06.032Z,3.30
2018-05-21T22:43:31.941Z,3.20
2018-05-21T22:45:57.960Z,3.10
2018-05-21T22:48:23.828Z,3.33
2018-05-21T22:50:49.708Z,3.33
2018-05-21T22:53:15.649Z,3.20
2018-05-21T22:55:41.535Z,3.80
2018-05-21T22:58:07.421Z,2.97
2018-05-21T23:00:33.461Z,2.90
2018-05-21T23:02:59.348Z,2.80
2018-05-21T23:05:25.222Z,3.40
2018-05-21T23:07:51.141Z,3.33
2018-05-21T23:10:17.031Z,2.97
2018-05-21T23:12:42.905Z,3.00
2018-05-21T23:15:08.814Z,3.40
2018-05-21T23:17:34.688Z,3.37
2018-05-21T23:20:00.612Z,3.27
2018-05-21T23:22:38.840Z,2.93
2018-05-21T23:25:04.755Z,3.30
2018-05-21T23:27:30.630Z,3.50
2018-05-21T23:29:56.603Z,3.63
2018-05-21T23:32:22.487Z,3.50
2018-05-21T23:34:49.185Z,3.17
2018-05-21T23:37:15.087Z,3.43
2018-05-21T23:39:40.953Z,3.37
2018-05-21T23:42:06.834Z,3.17
2018-05-21T23:44:32.780Z,3.90
2018-05-21T23:46:58.693Z,3.67
2018-05-21T23:49:24.570Z,3.53
2018-05-21T23:51:50.483Z,3.63
2018-05-21T23:54:16.359Z,3.97
2018-05-21T23:56:42.241Z,3.30
2018-05-21T23:59:08.159Z,3.43
